sensor_id;sensor_type;location;lat;lon;timestamp;P1;durP1;ratioP1;P2;durP2;ratioP2
25125;SDS011;13106;50.808;5.670;2023-10-13T00:02:02;13.18;;;7.88;;
25125;SDS011;13106;50.808;5.670;2023-10-13T00:04:30;15.20;;;7.93;;
25125;SDS011;13106;50.808;5.670;2023-10-13T00:07:07;14.40;;;8.38;;
25125;SDS011;13106;50.808;5.670;2023-10-13T00:09:34;10.52;;;8.15;;
25125;SDS011;13106;50.808;5.670;2023-10-13T00:12:05;11.43;;;8.10;;
25125;SDS011;13106;50.808;5.670;2023-10-13T00:14:38;12.43;;;7.68;;
25125;SDS011;13106;50.808;5.670;2023-10-13T00:17:05;17.55;;;8.75;;
25125;SDS011;13106;50.808;5.670;2023-10-13T00:19:45;11.60;;;8.02;;
25125;SDS011;13106;50.808;5.670;2023-10-13T00:22:12;12.93;;;8.07;;
25125;SDS011;13106;50.808;5.670;2023-10-13T00:24:41;14.73;;;8.32;;
25125;SDS011;13106;50.808;5.670;2023-10-13T00:27:17;12.88;;;8.05;;
25125;SDS011;13106;50.808;5.670;2023-10-13T00:29:53;12.70;;;8.10;;
25125;SDS011;13106;50.808;5.670;2023-10-13T00:32:39;14.45;;;7.90;;
25125;SDS011;13106;50.808;5.670;2023-10-13T00:35:08;12.45;;;8.35;;
25125;SDS011;13106;50.808;5.670;2023-10-13T00:37:36;14.93;;;8.82;;
25125;SDS011;13106;50.808;5.670;2023-10-13T00:40:11;14.38;;;9.00;;
25125;SDS011;13106;50.808;5.670;2023-10-13T00:42:56;12.77;;;7.68;;
25125;SDS011;13106;50.808;5.670;2023-10-13T00:45:41;14.55;;;8.40;;
25125;SDS011;13106;50.808;5.670;2023-10-13T00:48:08;13.02;;;8.07;;
25125;SDS011;13106;50.808;5.670;2023-10-13T00:50:36;11.18;;;8.32;;
25125;SDS011;13106;50.808;5.670;2023-10-13T00:53:03;12.82;;;8.63;;
25125;SDS011;13106;50.808;5.670;2023-10-13T00:55:29;13.73;;;9.00;;
25125;SDS011;13106;50.808;5.670;2023-10-13T00:57:58;13.45;;;8.25;;
25125;SDS011;13106;50.808;5.670;2023-10-13T01:00:29;12.57;;;8.60;;
25125;SDS011;13106;50.808;5.670;2023-10-13T01:02:55;19.52;;;9.07;;
25125;SDS011;13106;50.808;5.670;2023-10-13T01:05:24;12.30;;;7.63;;
25125;SDS011;13106;50.808;5.670;2023-10-13T01:07:51;18.63;;;8.93;;
25125;SDS011;13106;50.808;5.670;2023-10-13T01:10:21;13.95;;;9.02;;
25125;SDS011;13106;50.808;5.670;2023-10-13T01:12:57;15.23;;;8.50;;
25125;SDS011;13106;50.808;5.670;2023-10-13T01:15:27;13.45;;;8.50;;
25125;SDS011;13106;50.808;5.670;2023-10-13T01:18:10;18.05;;;9.70;;
25125;SDS011;13106;50.808;5.670;2023-10-13T01:20:41;14.10;;;9.80;;
25125;SDS011;13106;50.808;5.670;2023-10-13T01:23:12;12.88;;;9.50;;
25125;SDS011;13106;50.808;5.670;2023-10-13T01:25:44;17.17;;;9.68;;
25125;SDS011;13106;50.808;5.670;2023-10-13T01:28:11;15.30;;;9.75;;
25125;SDS011;13106;50.808;5.670;2023-10-13T01:30:43;19.30;;;10.35;;
25125;SDS011;13106;50.808;5.670;2023-10-13T01:33:14;15.45;;;10.45;;
25125;SDS011;13106;50.808;5.670;2023-10-13T01:35:40;15.73;;;9.43;;
25125;SDS011;13106;50.808;5.670;2023-10-13T01:38:12;16.92;;;10.95;;
25125;SDS011;13106;50.808;5.670;2023-10-13T01:40:38;16.80;;;10.00;;
25125;SDS011;13106;50.808;5.670;2023-10-13T01:43:04;19.00;;;10.82;;
25125;SDS011;13106;50.808;5.670;2023-10-13T01:45:36;17.30;;;11.10;;
25125;SDS011;13106;50.808;5.670;2023-10-13T01:48:11;16.58;;;9.73;;
25125;SDS011;13106;50.808;5.670;2023-10-13T01:50:41;14.27;;;10.38;;
25125;SDS011;13106;50.808;5.670;2023-10-13T01:53:07;17.65;;;10.18;;
25125;SDS011;13106;50.808;5.670;2023-10-13T01:55:42;15.90;;;11.05;;
25125;SDS011;13106;50.808;5.670;2023-10-13T01:58:09;17.27;;;10.93;;
25125;SDS011;13106;50.808;5.670;2023-10-13T02:00:40;16.73;;;10.10;;
25125;SDS011;13106;50.808;5.670;2023-10-13T02:03:10;14.20;;;9.80;;
25125;SDS011;13106;50.808;5.670;2023-10-13T02:10:52;16.05;;;10.02;;
25125;SDS011;13106;50.808;5.670;2023-10-13T02:13:19;18.98;;;10.00;;
25125;SDS011;13106;50.808;5.670;2023-10-13T02:15:47;16.85;;;10.60;;
25125;SDS011;13106;50.808;5.670;2023-10-13T02:18:17;18.45;;;9.90;;
25125;SDS011;13106;50.808;5.670;2023-10-13T02:20:51;17.08;;;10.15;;
25125;SDS011;13106;50.808;5.670;2023-10-13T02:23:24;16.10;;;9.93;;
25125;SDS011;13106;50.808;5.670;2023-10-13T02:25:50;23.00;;;10.47;;
25125;SDS011;13106;50.808;5.670;2023-10-13T02:28:26;17.38;;;10.07;;
25125;SDS011;13106;50.808;5.670;2023-10-13T02:33:22;18.00;;;9.88;;
25125;SDS011;13106;50.808;5.670;2023-10-13T02:35:56;17.20;;;9.70;;
25125;SDS011;13106;50.808;5.670;2023-10-13T02:38:22;17.98;;;10.07;;
25125;SDS011;13106;50.808;5.670;2023-10-13T02:41:04;16.73;;;9.77;;
25125;SDS011;13106;50.808;5.670;2023-10-13T02:43:36;17.33;;;9.57;;
25125;SDS011;13106;50.808;5.670;2023-10-13T02:46:03;15.48;;;9.38;;
25125;SDS011;13106;50.808;5.670;2023-10-13T02:48:29;12.45;;;8.52;;
25125;SDS011;13106;50.808;5.670;2023-10-13T02:51:05;17.50;;;9.68;;
25125;SDS011;13106;50.808;5.670;2023-10-13T02:53:39;17.35;;;9.45;;
25125;SDS011;13106;50.808;5.670;2023-10-13T02:56:06;15.93;;;9.20;;
25125;SDS011;13106;50.808;5.670;2023-10-13T02:58:32;11.50;;;8.48;;
25125;SDS011;13106;50.808;5.670;2023-10-13T03:01:08;13.18;;;9.00;;
25125;SDS011;13106;50.808;5.670;2023-10-13T03:03:42;14.43;;;8.70;;
25125;SDS011;13106;50.808;5.670;2023-10-13T03:06:08;15.15;;;8.38;;
25125;SDS011;13106;50.808;5.670;2023-10-13T03:08:37;15.15;;;8.45;;
25125;SDS011;13106;50.808;5.670;2023-10-13T03:11:04;10.85;;;7.32;;
25125;SDS011;13106;50.808;5.670;2023-10-13T03:13:34;13.55;;;7.88;;
25125;SDS011;13106;50.808;5.670;2023-10-13T03:16:00;13.77;;;8.23;;
25125;SDS011;13106;50.808;5.670;2023-10-13T03:18:29;15.10;;;7.90;;
25125;SDS011;13106;50.808;5.670;2023-10-13T03:20:59;13.38;;;7.57;;
25125;SDS011;13106;50.808;5.670;2023-10-13T03:23:27;11.95;;;7.20;;
25125;SDS011;13106;50.808;5.670;2023-10-13T03:25:53;15.15;;;7.25;;
25125;SDS011;13106;50.808;5.670;2023-10-13T03:28:21;11.43;;;7.05;;
25125;SDS011;13106;50.808;5.670;2023-10-13T03:33:17;13.48;;;7.20;;
25125;SDS011;13106;50.808;5.670;2023-10-13T03:35:54;14.02;;;7.63;;
25125;SDS011;13106;50.808;5.670;2023-10-13T03:38:24;13.75;;;7.47;;
25125;SDS011;13106;50.808;5.670;2023-10-13T03:40:52;14.23;;;8.70;;
25125;SDS011;13106;50.808;5.670;2023-10-13T03:43:22;13.52;;;7.53;;
25125;SDS011;13106;50.808;5.670;2023-10-13T03:45:49;11.52;;;7.00;;
25125;SDS011;13106;50.808;5.670;2023-10-13T03:48:25;11.32;;;7.43;;
25125;SDS011;13106;50.808;5.670;2023-10-13T03:50:52;15.27;;;6.85;;
25125;SDS011;13106;50.808;5.670;2023-10-13T03:53:29;14.02;;;7.32;;
25125;SDS011;13106;50.808;5.670;2023-10-13T03:58:37;11.48;;;7.28;;
25125;SDS011;13106;50.808;5.670;2023-10-13T04:01:04;13.48;;;7.25;;
25125;SDS011;13106;50.808;5.670;2023-10-13T04:03:35;17.63;;;7.35;;
25125;SDS011;13106;50.808;5.670;2023-10-13T04:06:04;16.10;;;7.72;;
25125;SDS011;13106;50.808;5.670;2023-10-13T04:08:41;11.65;;;7.28;;
25125;SDS011;13106;50.808;5.670;2023-10-13T04:11:13;10.70;;;7.10;;
25125;SDS011;13106;50.808;5.670;2023-10-13T04:13:57;15.55;;;6.05;;
25125;SDS011;13106;50.808;5.670;2023-10-13T04:16:42;12.45;;;10.45;;
25125;SDS011;13106;50.808;5.670;2023-10-13T04:19:19;11.95;;;6.45;;
25125;SDS011;13106;50.808;5.670;2023-10-13T04:21:47;10.68;;;6.30;;
25125;SDS011;13106;50.808;5.670;2023-10-13T04:24:24;12.10;;;6.57;;
25125;SDS011;13106;50.808;5.670;2023-10-13T04:27:22;10.32;;;5.95;;
25125;SDS011;13106;50.808;5.670;2023-10-13T04:30:04;12.73;;;6.00;;
25125;SDS011;13106;50.808;5.670;2023-10-13T04:32:33;10.13;;;6.38;;
25125;SDS011;13106;50.808;5.670;2023-10-13T04:35:12;14.13;;;5.73;;
25125;SDS011;13106;50.808;5.670;2023-10-13T04:37:38;9.60;;;6.00;;
25125;SDS011;13106;50.808;5.670;2023-10-13T04:40:26;15.55;;;10.65;;
25125;SDS011;13106;50.808;5.670;2023-10-13T04:43:00;13.60;;;8.77;;
25125;SDS011;13106;50.808;5.670;2023-10-13T04:45:41;16.88;;;13.13;;
25125;SDS011;13106;50.808;5.670;2023-10-13T04:48:19;10.98;;;5.57;;
25125;SDS011;13106;50.808;5.670;2023-10-13T04:50:48;18.33;;;11.40;;
25125;SDS011;13106;50.808;5.670;2023-10-13T04:53:23;13.18;;;9.90;;
25125;SDS011;13106;50.808;5.670;2023-10-13T04:55:59;17.08;;;10.70;;
25125;SDS011;13106;50.808;5.670;2023-10-13T04:58:28;12.68;;;7.80;;
25125;SDS011;13106;50.808;5.670;2023-10-13T05:01:03;12.70;;;7.97;;
25125;SDS011;13106;50.808;5.670;2023-10-13T05:04:08;9.27;;;7.75;;
25125;SDS011;13106;50.808;5.670;2023-10-13T05:06:47;14.32;;;12.38;;
25125;SDS011;13106;50.808;5.670;2023-10-13T05:09:33;12.73;;;8.82;;
25125;SDS011;13106;50.808;5.670;2023-10-13T05:12:18;10.50;;;7.13;;
25125;SDS011;13106;50.808;5.670;2023-10-13T05:15:03;13.95;;;7.15;;
25125;SDS011;13106;50.808;5.670;2023-10-13T05:17:48;15.68;;;8.20;;
25125;SDS011;13106;50.808;5.670;2023-10-13T05:20:34;15.35;;;5.57;;
25125;SDS011;13106;50.808;5.670;2023-10-13T05:23:18;12.13;;;7.93;;
25125;SDS011;13106;50.808;5.670;2023-10-13T05:26:03;8.73;;;4.53;;
25125;SDS011;13106;50.808;5.670;2023-10-13T05:28:47;15.57;;;10.25;;
25125;SDS011;13106;50.808;5.670;2023-10-13T05:31:32;11.73;;;9.45;;
25125;SDS011;13106;50.808;5.670;2023-10-13T05:34:17;14.07;;;5.10;;
25125;SDS011;13106;50.808;5.670;2023-10-13T05:37:01;12.65;;;5.13;;
25125;SDS011;13106;50.808;5.670;2023-10-13T05:39:46;8.82;;;4.65;;
25125;SDS011;13106;50.808;5.670;2023-10-13T05:42:30;16.35;;;9.88;;
25125;SDS011;13106;50.808;5.670;2023-10-13T05:45:15;13.30;;;10.82;;
25125;SDS011;13106;50.808;5.670;2023-10-13T05:47:41;13.95;;;10.45;;
25125;SDS011;13106;50.808;5.670;2023-10-13T05:50:08;11.30;;;5.03;;
25125;SDS011;13106;50.808;5.670;2023-10-13T05:52:46;11.63;;;4.97;;
25125;SDS011;13106;50.808;5.670;2023-10-13T05:55:25;15.63;;;10.80;;
25125;SDS011;13106;50.808;5.670;2023-10-13T05:58:10;17.23;;;5.78;;
25125;SDS011;13106;50.808;5.670;2023-10-13T06:00:55;12.18;;;5.10;;
25125;SDS011;13106;50.808;5.670;2023-10-13T06:03:40;10.93;;;4.60;;
25125;SDS011;13106;50.808;5.670;2023-10-13T06:06:25;15.38;;;5.75;;
25125;SDS011;13106;50.808;5.670;2023-10-13T06:09:09;10.63;;;5.32;;
25125;SDS011;13106;50.808;5.670;2023-10-13T06:11:54;9.95;;;5.43;;
25125;SDS011;13106;50.808;5.670;2023-10-13T06:14:39;15.70;;;5.60;;
25125;SDS011;13106;50.808;5.670;2023-10-13T06:17:23;10.70;;;4.63;;
25125;SDS011;13106;50.808;5.670;2023-10-13T06:20:08;12.95;;;5.28;;
25125;SDS011;13106;50.808;5.670;2023-10-13T06:22:53;12.45;;;5.25;;
25125;SDS011;13106;50.808;5.670;2023-10-13T06:25:38;21.50;;;5.40;;
25125;SDS011;13106;50.808;5.670;2023-10-13T06:28:23;15.02;;;5.00;;
25125;SDS011;13106;50.808;5.670;2023-10-13T06:31:08;15.70;;;4.80;;
25125;SDS011;13106;50.808;5.670;2023-10-13T06:33:40;19.27;;;9.80;;
25125;SDS011;13106;50.808;5.670;2023-10-13T06:36:12;12.63;;;5.10;;
25125;SDS011;13106;50.808;5.670;2023-10-13T06:38:38;14.00;;;4.78;;
25125;SDS011;13106;50.808;5.670;2023-10-13T06:41:04;12.23;;;4.55;;
25125;SDS011;13106;50.808;5.670;2023-10-13T06:43:31;15.60;;;5.00;;
25125;SDS011;13106;50.808;5.670;2023-10-13T06:45:57;13.07;;;4.70;;
25125;SDS011;13106;50.808;5.670;2023-10-13T06:48:27;12.85;;;5.15;;
25125;SDS011;13106;50.808;5.670;2023-10-13T06:50:58;14.82;;;4.97;;
25125;SDS011;13106;50.808;5.670;2023-10-13T06:53:29;16.77;;;7.78;;
25125;SDS011;13106;50.808;5.670;2023-10-13T06:56:01;14.05;;;4.82;;
25125;SDS011;13106;50.808;5.670;2023-10-13T06:58:28;21.08;;;17.02;;
25125;SDS011;13106;50.808;5.670;2023-10-13T07:00:54;15.30;;;5.30;;
25125;SDS011;13106;50.808;5.670;2023-10-13T07:03:22;12.23;;;9.68;;
25125;SDS011;13106;50.808;5.670;2023-10-13T07:05:50;17.25;;;8.88;;
25125;SDS011;13106;50.808;5.670;2023-10-13T07:08:17;11.68;;;6.82;;
25125;SDS011;13106;50.808;5.670;2023-10-13T07:10:49;17.15;;;8.35;;
25125;SDS011;13106;50.808;5.670;2023-10-13T07:13:33;12.50;;;4.60;;
25125;SDS011;13106;50.808;5.670;2023-10-13T07:16:04;16.20;;;9.52;;
25125;SDS011;13106;50.808;5.670;2023-10-13T07:18:33;10.30;;;4.22;;
25125;SDS011;13106;50.808;5.670;2023-10-13T07:21:08;15.05;;;10.25;;
25125;SDS011;13106;50.808;5.670;2023-10-13T07:23:37;16.90;;;5.18;;
25125;SDS011;13106;50.808;5.670;2023-10-13T07:26:04;10.02;;;4.47;;
25125;SDS011;13106;50.808;5.670;2023-10-13T07:28:34;19.15;;;13.55;;
25125;SDS011;13106;50.808;5.670;2023-10-13T07:31:14;15.15;;;6.25;;
25125;SDS011;13106;50.808;5.670;2023-10-13T07:33:40;10.82;;;5.30;;
25125;SDS011;13106;50.808;5.670;2023-10-13T07:36:07;13.52;;;4.75;;
25125;SDS011;13106;50.808;5.670;2023-10-13T07:38:53;12.60;;;5.45;;
25125;SDS011;13106;50.808;5.670;2023-10-13T07:41:46;14.10;;;5.07;;
25125;SDS011;13106;50.808;5.670;2023-10-13T07:44:16;11.88;;;7.10;;
25125;SDS011;13106;50.808;5.670;2023-10-13T07:46:45;14.68;;;6.60;;
25125;SDS011;13106;50.808;5.670;2023-10-13T07:49:23;14.35;;;7.32;;
25125;SDS011;13106;50.808;5.670;2023-10-13T07:51:55;14.35;;;4.30;;
25125;SDS011;13106;50.808;5.670;2023-10-13T07:54:25;11.20;;;4.30;;
25125;SDS011;13106;50.808;5.670;2023-10-13T07:56:51;12.18;;;4.30;;
25125;SDS011;13106;50.808;5.670;2023-10-13T07:59:20;12.05;;;4.43;;
25125;SDS011;13106;50.808;5.670;2023-10-13T08:01:48;9.77;;;4.72;;
25125;SDS011;13106;50.808;5.670;2023-10-13T08:04:33;11.80;;;4.38;;
25125;SDS011;13106;50.808;5.670;2023-10-13T08:07:01;13.73;;;4.53;;
25125;SDS011;13106;50.808;5.670;2023-10-13T08:09:37;11.40;;;4.53;;
25125;SDS011;13106;50.808;5.670;2023-10-13T08:12:06;10.40;;;4.20;;
25125;SDS011;13106;50.808;5.670;2023-10-13T08:14:36;13.32;;;4.82;;
25125;SDS011;13106;50.808;5.670;2023-10-13T08:17:05;13.05;;;4.75;;
25125;SDS011;13106;50.808;5.670;2023-10-13T08:19:33;11.80;;;6.68;;
25125;SDS011;13106;50.808;5.670;2023-10-13T08:22:07;10.75;;;6.72;;
25125;SDS011;13106;50.808;5.670;2023-10-13T08:24:45;7.72;;;6.45;;
25125;SDS011;13106;50.808;5.670;2023-10-13T08:27:12;14.43;;;6.03;;
25125;SDS011;13106;50.808;5.670;2023-10-13T08:29:39;13.48;;;5.10;;
25125;SDS011;13106;50.808;5.670;2023-10-13T08:32:20;11.73;;;4.85;;
25125;SDS011;13106;50.808;5.670;2023-10-13T08:34:52;11.35;;;5.78;;
25125;SDS011;13106;50.808;5.670;2023-10-13T08:37:18;8.82;;;4.85;;
25125;SDS011;13106;50.808;5.670;2023-10-13T08:39:54;14.45;;;6.68;;
25125;SDS011;13106;50.808;5.670;2023-10-13T08:42:43;17.73;;;5.50;;
25125;SDS011;13106;50.808;5.670;2023-10-13T08:47:48;13.82;;;5.07;;
25125;SDS011;13106;50.808;5.670;2023-10-13T08:50:20;9.93;;;5.22;;
25125;SDS011;13106;50.808;5.670;2023-10-13T08:53:06;11.27;;;5.10;;
25125;SDS011;13106;50.808;5.670;2023-10-13T08:58:30;11.05;;;5.13;;
25125;SDS011;13106;50.808;5.670;2023-10-13T09:01:17;8.25;;;5.10;;
25125;SDS011;13106;50.808;5.670;2023-10-13T09:06:59;10.75;;;5.07;;
25125;SDS011;13106;50.808;5.670;2023-10-13T09:09:32;12.90;;;5.50;;
25125;SDS011;13106;50.808;5.670;2023-10-13T09:14:56;11.00;;;4.88;;
25125;SDS011;13106;50.808;5.670;2023-10-13T09:17:23;13.10;;;5.97;;
25125;SDS011;13106;50.808;5.670;2023-10-13T09:20:05;10.85;;;5.50;;
25125;SDS011;13106;50.808;5.670;2023-10-13T09:22:57;12.30;;;5.97;;
25125;SDS011;13106;50.808;5.670;2023-10-13T09:25:29;12.27;;;5.85;;
25125;SDS011;13106;50.808;5.670;2023-10-13T09:28:00;11.68;;;5.88;;
25125;SDS011;13106;50.808;5.670;2023-10-13T09:30:27;10.25;;;5.82;;
25125;SDS011;13106;50.808;5.670;2023-10-13T09:33:02;11.10;;;5.55;;
25125;SDS011;13106;50.808;5.670;2023-10-13T09:35:33;13.02;;;6.15;;
25125;SDS011;13106;50.808;5.670;2023-10-13T09:38:02;9.00;;;5.47;;
25125;SDS011;13106;50.808;5.670;2023-10-13T09:40:29;11.15;;;5.70;;
25125;SDS011;13106;50.808;5.670;2023-10-13T09:42:58;11.05;;;5.78;;
25125;SDS011;13106;50.808;5.670;2023-10-13T09:45:31;9.70;;;5.82;;
25125;SDS011;13106;50.808;5.670;2023-10-13T09:48:34;11.40;;;5.30;;
25125;SDS011;13106;50.808;5.670;2023-10-13T09:51:03;10.23;;;5.68;;
25125;SDS011;13106;50.808;5.670;2023-10-13T09:53:35;12.55;;;5.50;;
25125;SDS011;13106;50.808;5.670;2023-10-13T09:58:57;13.02;;;5.68;;
25125;SDS011;13106;50.808;5.670;2023-10-13T10:01:27;11.77;;;5.43;;
25125;SDS011;13106;50.808;5.670;2023-10-13T10:04:09;12.27;;;5.35;;
25125;SDS011;13106;50.808;5.670;2023-10-13T10:06:56;14.43;;;5.75;;
25125;SDS011;13106;50.808;5.670;2023-10-13T10:09:32;13.57;;;5.67;;
25125;SDS011;13106;50.808;5.670;2023-10-13T10:17:10;11.70;;;5.25;;
25125;SDS011;13106;50.808;5.670;2023-10-13T10:19:52;11.45;;;5.53;;
25125;SDS011;13106;50.808;5.670;2023-10-13T10:22:40;10.27;;;6.13;;
25125;SDS011;13106;50.808;5.670;2023-10-13T10:25:11;16.10;;;5.70;;
25125;SDS011;13106;50.808;5.670;2023-10-13T10:27:56;10.20;;;5.18;;
25125;SDS011;13106;50.808;5.670;2023-10-13T10:30:26;19.58;;;5.55;;
25125;SDS011;13106;50.808;5.670;2023-10-13T10:35:22;11.27;;;5.22;;
25125;SDS011;13106;50.808;5.670;2023-10-13T10:37:48;10.63;;;5.40;;
25125;SDS011;13106;50.808;5.670;2023-10-13T10:40:18;11.20;;;5.03;;
25125;SDS011;13106;50.808;5.670;2023-10-13T10:43:10;15.65;;;5.20;;
25125;SDS011;13106;50.808;5.670;2023-10-13T10:45:45;16.20;;;5.18;;
25125;SDS011;13106;50.808;5.670;2023-10-13T10:48:12;11.65;;;4.82;;
25125;SDS011;13106;50.808;5.670;2023-10-13T10:50:52;12.82;;;4.80;;
25125;SDS011;13106;50.808;5.670;2023-10-13T10:53:19;14.70;;;4.95;;
25125;SDS011;13106;50.808;5.670;2023-10-13T10:55:47;15.13;;;5.38;;
25125;SDS011;13106;50.808;5.670;2023-10-13T10:58:13;13.10;;;5.22;;
25125;SDS011;13106;50.808;5.670;2023-10-13T11:01:04;13.00;;;4.88;;
25125;SDS011;13106;50.808;5.670;2023-10-13T11:03:35;15.25;;;4.85;;
25125;SDS011;13106;50.808;5.670;2023-10-13T11:06:03;11.27;;;4.53;;
25125;SDS011;13106;50.808;5.670;2023-10-13T11:08:35;12.98;;;5.22;;
25125;SDS011;13106;50.808;5.670;2023-10-13T11:11:02;15.57;;;4.72;;
25125;SDS011;13106;50.808;5.670;2023-10-13T11:13:42;13.98;;;4.43;;
25125;SDS011;13106;50.808;5.670;2023-10-13T11:16:22;14.10;;;4.82;;
25125;SDS011;13106;50.808;5.670;2023-10-13T11:19:02;14.35;;;4.55;;
25125;SDS011;13106;50.808;5.670;2023-10-13T11:21:30;21.25;;;5.40;;
25125;SDS011;13106;50.808;5.670;2023-10-13T11:23:57;11.13;;;4.30;;
25125;SDS011;13106;50.808;5.670;2023-10-13T11:26:34;12.10;;;4.50;;
25125;SDS011;13106;50.808;5.670;2023-10-13T11:29:00;12.68;;;4.32;;
25125;SDS011;13106;50.808;5.670;2023-10-13T11:31:35;13.63;;;4.50;;
25125;SDS011;13106;50.808;5.670;2023-10-13T11:34:02;11.20;;;4.93;;
25125;SDS011;13106;50.808;5.670;2023-10-13T11:36:31;12.20;;;4.50;;
25125;SDS011;13106;50.808;5.670;2023-10-13T11:38:58;11.63;;;4.60;;
25125;SDS011;13106;50.808;5.670;2023-10-13T11:41:24;13.50;;;4.78;;
25125;SDS011;13106;50.808;5.670;2023-10-13T11:44:02;15.13;;;5.55;;
25125;SDS011;13106;50.808;5.670;2023-10-13T11:46:48;10.25;;;4.78;;
25125;SDS011;13106;50.808;5.670;2023-10-13T11:49:21;11.90;;;4.32;;
25125;SDS011;13106;50.808;5.670;2023-10-13T11:51:53;11.13;;;3.78;;
25125;SDS011;13106;50.808;5.670;2023-10-13T11:54:27;10.48;;;4.07;;
25125;SDS011;13106;50.808;5.670;2023-10-13T11:56:53;13.23;;;4.22;;
25125;SDS011;13106;50.808;5.670;2023-10-13T11:59:23;16.23;;;5.22;;
25125;SDS011;13106;50.808;5.670;2023-10-13T12:01:52;15.23;;;5.05;;
25125;SDS011;13106;50.808;5.670;2023-10-13T12:04:37;14.57;;;4.30;;
25125;SDS011;13106;50.808;5.670;2023-10-13T12:07:09;13.00;;;4.00;;
25125;SDS011;13106;50.808;5.670;2023-10-13T12:09:48;12.98;;;4.47;;
25125;SDS011;13106;50.808;5.670;2023-10-13T12:12:27;12.65;;;4.53;;
25125;SDS011;13106;50.808;5.670;2023-10-13T12:14:53;13.82;;;5.68;;
25125;SDS011;13106;50.808;5.670;2023-10-13T12:20:07;13.25;;;4.40;;
25125;SDS011;13106;50.808;5.670;2023-10-13T12:22:43;11.48;;;4.55;;
25125;SDS011;13106;50.808;5.670;2023-10-13T12:25:20;20.10;;;4.68;;
25125;SDS011;13106;50.808;5.670;2023-10-13T12:27:58;13.77;;;4.30;;
25125;SDS011;13106;50.808;5.670;2023-10-13T12:30:37;12.85;;;4.10;;
25125;SDS011;13106;50.808;5.670;2023-10-13T12:33:19;11.40;;;4.32;;
25125;SDS011;13106;50.808;5.670;2023-10-13T12:36:02;12.70;;;4.57;;
25125;SDS011;13106;50.808;5.670;2023-10-13T12:38:31;13.13;;;4.75;;
25125;SDS011;13106;50.808;5.670;2023-10-13T12:41:13;11.63;;;4.97;;
25125;SDS011;13106;50.808;5.670;2023-10-13T12:43:58;8.88;;;4.13;;
25125;SDS011;13106;50.808;5.670;2023-10-13T12:46:42;10.00;;;4.40;;
25125;SDS011;13106;50.808;5.670;2023-10-13T12:49:27;14.20;;;4.20;;
25125;SDS011;13106;50.808;5.670;2023-10-13T12:52:13;15.05;;;4.05;;
25125;SDS011;13106;50.808;5.670;2023-10-13T12:54:50;13.60;;;4.00;;
25125;SDS011;13106;50.808;5.670;2023-10-13T12:57:22;15.48;;;4.85;;
25125;SDS011;13106;50.808;5.670;2023-10-13T12:59:49;12.82;;;3.97;;
25125;SDS011;13106;50.808;5.670;2023-10-13T13:02:19;11.13;;;4.72;;
25125;SDS011;13106;50.808;5.670;2023-10-13T13:04:45;13.75;;;4.90;;
25125;SDS011;13106;50.808;5.670;2023-10-13T13:07:16;15.95;;;4.82;;
25125;SDS011;13106;50.808;5.670;2023-10-13T13:09:42;10.85;;;3.90;;
25125;SDS011;13106;50.808;5.670;2023-10-13T13:12:08;13.93;;;4.20;;
25125;SDS011;13106;50.808;5.670;2023-10-13T13:14:38;12.53;;;3.70;;
25125;SDS011;13106;50.808;5.670;2023-10-13T13:17:06;12.98;;;4.75;;
25125;SDS011;13106;50.808;5.670;2023-10-13T13:19:36;10.98;;;4.43;;
25125;SDS011;13106;50.808;5.670;2023-10-13T13:22:04;15.90;;;4.65;;
25125;SDS011;13106;50.808;5.670;2023-10-13T13:24:36;15.02;;;4.40;;
25125;SDS011;13106;50.808;5.670;2023-10-13T13:27:08;18.80;;;4.20;;
25125;SDS011;13106;50.808;5.670;2023-10-13T13:29:34;12.55;;;4.80;;
25125;SDS011;13106;50.808;5.670;2023-10-13T13:32:03;13.70;;;4.05;;
25125;SDS011;13106;50.808;5.670;2023-10-13T13:34:30;12.13;;;4.55;;
25125;SDS011;13106;50.808;5.670;2023-10-13T13:36:59;10.30;;;4.50;;
25125;SDS011;13106;50.808;5.670;2023-10-13T13:39:27;15.95;;;4.57;;
25125;SDS011;13106;50.808;5.670;2023-10-13T13:41:55;13.27;;;4.03;;
25125;SDS011;13106;50.808;5.670;2023-10-13T13:44:24;12.25;;;4.38;;
25125;SDS011;13106;50.808;5.670;2023-10-13T13:47:01;13.30;;;4.33;;
25125;SDS011;13106;50.808;5.670;2023-10-13T13:49:36;13.13;;;4.05;;
25125;SDS011;13106;50.808;5.670;2023-10-13T13:52:05;10.13;;;4.18;;
25125;SDS011;13106;50.808;5.670;2023-10-13T13:54:31;14.38;;;5.13;;
25125;SDS011;13106;50.808;5.670;2023-10-13T13:56:57;9.25;;;4.13;;
25125;SDS011;13106;50.808;5.670;2023-10-13T13:59:23;10.65;;;4.25;;
25125;SDS011;13106;50.808;5.670;2023-10-13T14:01:49;9.15;;;4.35;;
25125;SDS011;13106;50.808;5.670;2023-10-13T14:04:17;12.02;;;4.68;;
25125;SDS011;13106;50.808;5.670;2023-10-13T14:06:44;11.45;;;4.50;;
25125;SDS011;13106;50.808;5.670;2023-10-13T14:09:10;9.80;;;4.25;;
25125;SDS011;13106;50.808;5.670;2023-10-13T14:11:41;9.75;;;5.10;;
25125;SDS011;13106;50.808;5.670;2023-10-13T14:14:26;10.05;;;4.68;;
25125;SDS011;13106;50.808;5.670;2023-10-13T14:16:52;12.68;;;5.18;;
25125;SDS011;13106;50.808;5.670;2023-10-13T14:19:19;10.38;;;4.78;;
25125;SDS011;13106;50.808;5.670;2023-10-13T14:21:54;10.63;;;4.63;;
25125;SDS011;13106;50.808;5.670;2023-10-13T14:24:21;9.55;;;4.22;;
25125;SDS011;13106;50.808;5.670;2023-10-13T14:27:00;9.02;;;4.78;;
25125;SDS011;13106;50.808;5.670;2023-10-13T14:29:46;8.20;;;4.03;;
25125;SDS011;13106;50.808;5.670;2023-10-13T14:32:13;12.05;;;4.38;;
25125;SDS011;13106;50.808;5.670;2023-10-13T14:34:43;12.93;;;4.45;;
25125;SDS011;13106;50.808;5.670;2023-10-13T14:37:10;13.70;;;4.15;;
25125;SDS011;13106;50.808;5.670;2023-10-13T14:39:38;11.07;;;4.35;;
25125;SDS011;13106;50.808;5.670;2023-10-13T14:42:04;12.60;;;4.22;;
25125;SDS011;13106;50.808;5.670;2023-10-13T14:44:33;12.02;;;4.20;;
25125;SDS011;13106;50.808;5.670;2023-10-13T14:46:59;9.63;;;4.30;;
25125;SDS011;13106;50.808;5.670;2023-10-13T14:49:26;6.70;;;3.72;;
25125;SDS011;13106;50.808;5.670;2023-10-13T14:51:52;7.85;;;3.70;;
25125;SDS011;13106;50.808;5.670;2023-10-13T14:54:20;8.50;;;3.85;;
25125;SDS011;13106;50.808;5.670;2023-10-13T14:56:57;10.30;;;3.72;;
25125;SDS011;13106;50.808;5.670;2023-10-13T14:59:23;12.70;;;4.40;;
25125;SDS011;13106;50.808;5.670;2023-10-13T15:01:49;12.25;;;4.18;;
25125;SDS011;13106;50.808;5.670;2023-10-13T15:04:15;8.77;;;4.55;;
25125;SDS011;13106;50.808;5.670;2023-10-13T15:06:41;8.13;;;3.67;;
25125;SDS011;13106;50.808;5.670;2023-10-13T15:09:09;10.15;;;3.80;;
25125;SDS011;13106;50.808;5.670;2023-10-13T15:11:36;10.90;;;4.13;;
25125;SDS011;13106;50.808;5.670;2023-10-13T15:14:02;9.95;;;4.53;;
25125;SDS011;13106;50.808;5.670;2023-10-13T15:16:29;9.95;;;4.20;;
25125;SDS011;13106;50.808;5.670;2023-10-13T15:18:55;10.55;;;4.05;;
25125;SDS011;13106;50.808;5.670;2023-10-13T15:21:21;11.23;;;4.80;;
25125;SDS011;13106;50.808;5.670;2023-10-13T15:23:51;9.68;;;4.50;;
25125;SDS011;13106;50.808;5.670;2023-10-13T15:26:20;8.57;;;4.00;;
25125;SDS011;13106;50.808;5.670;2023-10-13T15:28:48;11.40;;;4.70;;
25125;SDS011;13106;50.808;5.670;2023-10-13T15:31:15;8.82;;;4.93;;
25125;SDS011;13106;50.808;5.670;2023-10-13T15:33:51;7.30;;;5.07;;
25125;SDS011;13106;50.808;5.670;2023-10-13T15:36:19;10.60;;;5.13;;
25125;SDS011;13106;50.808;5.670;2023-10-13T15:38:45;12.95;;;5.05;;
25125;SDS011;13106;50.808;5.670;2023-10-13T15:41:20;8.20;;;4.43;;
25125;SDS011;13106;50.808;5.670;2023-10-13T15:43:46;12.55;;;4.55;;
25125;SDS011;13106;50.808;5.670;2023-10-13T15:46:18;7.68;;;4.47;;
25125;SDS011;13106;50.808;5.670;2023-10-13T15:48:50;10.00;;;4.53;;